createdAt,value
2023-02-13T00:01:20.539Z,24.10
2023-02-13T00:07:31.486Z,22.00
2023-02-13T00:13:42.240Z,22.10
2023-02-13T00:16:48.523Z,26.10
2023-02-13T00:22:59.333Z,20.70
2023-02-13T00:26:10.857Z,16.80
2023-02-13T00:29:17.079Z,13.50
2023-02-13T00:32:23.231Z,10.80
2023-02-13T00:35:29.533Z,11.50
2023-02-13T00:41:41.144Z,11.20
2023-02-13T00:44:47.385Z,12.00
2023-02-13T00:47:53.560Z,14.10
2023-02-13T00:51:00.536Z,14.80
2023-02-13T00:54:07.507Z,15.00
2023-02-13T00:57:13.691Z,14.00
2023-02-13T01:00:21.369Z,15.30
2023-02-13T01:03:28.020Z,13.70
2023-02-13T01:06:34.299Z,12.10
2023-02-13T01:09:40.778Z,12.60
2023-02-13T01:12:47.187Z,11.30
2023-02-13T01:18:58.027Z,10.00
2023-02-13T01:22:04.269Z,9.90
2023-02-13T01:28:15.846Z,9.10
2023-02-13T01:34:26.766Z,9.80
2023-02-13T01:37:33.153Z,9.50
2023-02-13T01:43:55.445Z,10.50
2023-02-13T01:47:01.727Z,9.50
2023-02-13T01:50:12.557Z,8.90
2023-02-13T01:53:23.350Z,9.60
2023-02-13T01:56:34.649Z,9.50
2023-02-13T01:59:48.732Z,9.50
2023-02-13T02:02:59.441Z,9.50
2023-02-13T02:06:06.292Z,10.80
2023-02-13T02:09:16.026Z,9.60
2023-02-13T02:12:27.593Z,9.80
2023-02-13T02:15:33.986Z,9.00
2023-02-13T02:22:01.789Z,9.10
2023-02-13T02:25:27.241Z,8.90
2023-02-13T02:29:15.930Z,8.90
2023-02-13T02:32:40.333Z,8.40
2023-02-13T02:35:53.943Z,7.80
2023-02-13T02:39:09.450Z,8.50
2023-02-13T02:42:28.085Z,8.20
2023-02-13T02:45:41.081Z,9.90
2023-02-13T02:49:12.668Z,9.30
2023-02-13T02:52:26.639Z,9.80
2023-02-13T02:55:38.401Z,9.40
2023-02-13T02:59:06.590Z,9.30
2023-02-13T03:02:42.752Z,8.90
2023-02-13T03:06:09.394Z,8.90
2023-02-13T03:09:37.987Z,9.20
2023-02-13T03:13:08.132Z,9.10
2023-02-13T03:16:32.007Z,9.10
2023-02-13T03:20:11.738Z,9.40
2023-02-13T03:23:24.416Z,10.30
2023-02-13T03:26:50.605Z,9.30
2023-02-13T03:30:09.654Z,9.60
2023-02-13T03:33:28.952Z,8.60
2023-02-13T03:37:02.352Z,9.00
2023-02-13T03:40:14.305Z,9.30
2023-02-13T03:43:23.155Z,9.40
2023-02-13T03:46:32.135Z,8.60
2023-02-13T03:50:00.787Z,9.10
2023-02-13T03:53:10.969Z,9.30
2023-02-13T03:56:38.292Z,8.70
2023-02-13T03:59:45.010Z,8.90
2023-02-13T04:02:59.923Z,9.60
2023-02-13T04:06:10.116Z,8.70
2023-02-13T04:09:18.842Z,8.60
2023-02-13T04:12:33.256Z,8.70
2023-02-13T04:15:43.653Z,7.80
2023-02-13T04:18:53.418Z,8.30
2023-02-13T04:22:02.392Z,7.00
2023-02-13T04:25:09.704Z,6.90
2023-02-13T04:28:16.014Z,7.90
2023-02-13T04:34:27.096Z,11.40
2023-02-13T04:40:38.016Z,12.20
2023-02-13T04:46:48.908Z,13.40
2023-02-13T04:49:55.092Z,13.80
2023-02-13T04:53:01.706Z,14.50
2023-02-13T04:56:08.401Z,14.60
2023-02-13T04:59:14.672Z,15.80
2023-02-13T05:02:21.006Z,14.20
2023-02-13T05:08:31.757Z,15.40
2023-02-13T05:11:37.999Z,15.00
2023-02-13T05:14:44.171Z,14.60
2023-02-13T05:17:50.619Z,16.40
2023-02-13T05:21:14.796Z,15.40
2023-02-13T05:24:21.082Z,14.70
2023-02-13T05:27:27.308Z,15.00
2023-02-13T05:33:38.425Z,15.50
2023-02-13T05:39:49.956Z,15.60
2023-02-13T05:42:57.143Z,15.50
2023-02-13T05:46:08.649Z,15.50
2023-02-13T05:49:16.517Z,16.00
2023-02-13T05:52:22.705Z,17.50
2023-02-13T05:55:28.830Z,16.50
2023-02-13T05:58:35.773Z,16.90
2023-02-13T06:01:42.021Z,17.70
2023-02-13T06:04:48.294Z,17.40
2023-02-13T06:07:54.483Z,17.00
2023-02-13T06:11:01.064Z,17.40
2023-02-13T06:14:07.718Z,16.80
2023-02-13T06:17:13.932Z,16.00
2023-02-13T06:20:20.507Z,16.50
2023-02-13T06:23:26.693Z,17.50
2023-02-13T06:26:32.886Z,16.40
2023-02-13T06:29:39.168Z,17.10
2023-02-13T06:32:47.214Z,16.60
2023-02-13T06:35:54.194Z,17.10
2023-02-13T06:39:00.409Z,17.30
2023-02-13T06:42:06.615Z,15.00
2023-02-13T06:45:13.607Z,14.70
2023-02-13T06:48:19.849Z,14.80
2023-02-13T06:51:26.155Z,14.60
2023-02-13T06:57:53.437Z,13.40
2023-02-13T07:01:00.005Z,13.80
2023-02-13T07:04:06.566Z,12.30
2023-02-13T07:10:17.860Z,11.50
2023-02-13T07:13:24.173Z,11.50
2023-02-13T07:19:35.293Z,10.40
2023-02-13T07:22:41.515Z,10.70
2023-02-13T07:25:47.784Z,10.60
2023-02-13T07:29:09.262Z,9.50
2023-02-13T07:32:17.087Z,10.40
2023-02-13T07:38:28.047Z,11.30
2023-02-13T07:41:34.351Z,12.40
2023-02-13T07:47:45.119Z,11.90
2023-02-13T07:50:51.794Z,11.00
2023-02-13T07:53:58.505Z,11.00
2023-02-13T07:57:05.262Z,10.00
2023-02-13T08:00:13.720Z,11.10
2023-02-13T08:03:19.931Z,10.30
2023-02-13T08:06:26.591Z,10.20
2023-02-13T08:09:50.109Z,10.70
2023-02-13T08:12:56.745Z,9.10
2023-02-13T08:16:03.088Z,9.70
2023-02-13T08:22:13.791Z,10.40
2023-02-13T08:28:25.356Z,9.90
2023-02-13T08:34:36.289Z,8.70
2023-02-13T08:37:42.584Z,9.10
2023-02-13T08:43:55.041Z,9.30
2023-02-13T08:47:04.087Z,7.50
2023-02-13T08:50:12.148Z,7.70
2023-02-13T08:53:18.552Z,8.00
2023-02-13T08:56:24.754Z,8.10
2023-02-13T08:59:30.915Z,8.60
2023-02-13T09:02:37.423Z,8.80
2023-02-13T09:05:43.668Z,7.80
2023-02-13T09:08:49.897Z,8.30
2023-02-13T09:11:58.092Z,8.10
2023-02-13T09:15:05.074Z,8.80
2023-02-13T09:18:11.336Z,8.30
2023-02-13T09:21:18.017Z,9.00
2023-02-13T09:24:24.182Z,8.60
2023-02-13T09:27:30.453Z,8.70
2023-02-13T09:33:41.610Z,7.90
2023-02-13T09:36:47.891Z,7.50
2023-02-13T09:39:54.824Z,7.60
2023-02-13T09:43:09.665Z,6.90
2023-02-13T09:46:20.261Z,7.00
2023-02-13T09:49:32.000Z,6.70
2023-02-13T09:52:39.974Z,6.40
2023-02-13T09:55:53.764Z,7.30
2023-02-13T09:59:04.794Z,7.30
2023-02-13T10:02:27.135Z,7.10
2023-02-13T10:05:49.024Z,7.20
2023-02-13T10:09:07.710Z,7.50
2023-02-13T10:12:29.487Z,7.60
2023-02-13T10:15:44.121Z,7.40
2023-02-13T10:18:54.977Z,7.10
2023-02-13T10:22:06.031Z,6.80
2023-02-13T10:25:18.643Z,6.40
2023-02-13T10:28:33.645Z,6.30
2023-02-13T10:31:40.781Z,5.80
2023-02-13T10:34:48.513Z,5.50
2023-02-13T10:37:58.868Z,5.90
2023-02-13T10:41:26.708Z,5.50
2023-02-13T10:44:50.016Z,5.60
2023-02-13T10:48:07.730Z,5.90
2023-02-13T10:51:20.461Z,5.60
2023-02-13T10:54:47.920Z,5.60
2023-02-13T10:58:09.452Z,6.20
2023-02-13T11:01:23.420Z,6.00
2023-02-13T11:04:30.342Z,5.90
2023-02-13T11:07:39.560Z,5.90
2023-02-13T11:10:45.933Z,5.70
2023-02-13T11:14:11.641Z,6.50
2023-02-13T11:17:20.485Z,6.40
2023-02-13T11:20:33.140Z,6.90
2023-02-13T11:23:43.619Z,5.80
2023-02-13T11:26:54.575Z,6.40
2023-02-13T11:30:03.378Z,6.30
2023-02-13T11:33:25.295Z,5.70
2023-02-13T11:36:33.465Z,6.00
2023-02-13T11:39:40.079Z,5.10
2023-02-13T11:42:49.073Z,5.30
2023-02-13T11:46:07.053Z,6.60
2023-02-13T11:49:20.179Z,6.80
2023-02-13T11:52:30.633Z,5.20
2023-02-13T11:55:38.897Z,5.40
2023-02-13T11:58:45.761Z,5.10
2023-02-13T12:02:05.776Z,4.90
2023-02-13T12:05:22.336Z,6.80
2023-02-13T12:08:29.062Z,6.10
2023-02-13T12:11:43.294Z,5.90
2023-02-13T12:14:50.745Z,5.60
2023-02-13T12:18:07.083Z,6.70
2023-02-13T12:21:29.564Z,5.90
2023-02-13T12:24:48.782Z,6.00
2023-02-13T12:28:04.513Z,5.60
2023-02-13T12:31:43.251Z,8.30
2023-02-13T12:35:20.380Z,6.80
2023-02-13T12:38:47.597Z,6.20
2023-02-13T12:42:05.885Z,6.50
2023-02-13T12:45:34.761Z,6.90
2023-02-13T12:48:50.678Z,7.20
2023-02-13T12:52:10.092Z,7.80
2023-02-13T12:55:36.552Z,7.40
2023-02-13T12:59:05.768Z,7.30
2023-02-13T13:02:51.121Z,7.40
2023-02-13T13:06:20.361Z,7.00
2023-02-13T13:09:45.634Z,6.60
2023-02-13T13:13:00.388Z,6.80
2023-02-13T13:16:16.753Z,9.70
2023-02-13T13:19:32.496Z,9.80
2023-02-13T13:22:46.439Z,9.10
2023-02-13T13:26:00.692Z,9.00
2023-02-13T13:29:13.194Z,7.90
2023-02-13T13:32:22.957Z,7.30
2023-02-13T13:35:30.130Z,7.50
2023-02-13T13:38:44.240Z,19.50
2023-02-13T13:41:58.725Z,47.40
2023-02-13T13:45:34.203Z,49.90
2023-02-13T13:49:00.192Z,12.10
2023-02-13T13:52:28.652Z,42.60
2023-02-13T13:56:09.560Z,44.80
2023-02-13T13:59:41.976Z,12.30
2023-02-13T14:02:51.237Z,11.70
2023-02-13T14:06:07.371Z,21.50
2023-02-13T14:12:50.095Z,17.30
2023-02-13T14:15:56.752Z,13.50
2023-02-13T14:19:03.102Z,15.60
2023-02-13T14:25:38.949Z,12.30
2023-02-13T14:28:57.323Z,17.50
2023-02-13T14:32:16.984Z,8.70
2023-02-13T14:35:28.890Z,11.20
2023-02-13T14:38:36.054Z,10.30
2023-02-13T14:42:03.120Z,10.20
2023-02-13T14:45:17.695Z,9.70
2023-02-13T14:48:29.703Z,15.20
2023-02-13T14:51:41.595Z,11.30
2023-02-13T14:54:51.489Z,12.80
2023-02-13T14:58:13.062Z,26.70
2023-02-13T15:01:27.497Z,22.10
2023-02-13T15:04:42.312Z,49.30
2023-02-13T15:07:53.838Z,30.20
2023-02-13T15:11:00.703Z,34.80
2023-02-13T15:14:21.812Z,34.60
2023-02-13T15:17:31.045Z,28.50
2023-02-13T15:20:39.330Z,69.40
2023-02-13T15:23:51.038Z,32.60
2023-02-13T15:27:08.928Z,35.70
2023-02-13T15:30:25.430Z,16.50
2023-02-13T15:33:37.472Z,15.60
2023-02-13T15:36:50.282Z,15.90
2023-02-13T15:39:56.782Z,14.60
2023-02-13T15:43:03.704Z,11.00
2023-02-13T15:46:20.418Z,16.30
2023-02-13T15:49:28.114Z,19.90
2023-02-13T15:52:38.209Z,23.60
2023-02-13T15:55:56.699Z,20.60
2023-02-13T15:59:04.781Z,25.70
2023-02-13T16:02:16.521Z,26.90
2023-02-13T16:05:38.563Z,18.00
2023-02-13T16:08:52.893Z,44.90
2023-02-13T16:12:04.310Z,19.60
2023-02-13T16:15:19.601Z,12.30
2023-02-13T16:18:26.453Z,22.60
2023-02-13T16:21:35.968Z,24.30
2023-02-13T16:24:45.853Z,22.60
2023-02-13T16:27:53.733Z,13.30
2023-02-13T16:31:02.844Z,12.00
2023-02-13T16:34:25.058Z,15.60
2023-02-13T16:37:34.339Z,11.70
2023-02-13T16:40:43.308Z,12.30
2023-02-13T16:43:51.826Z,13.30
2023-02-13T16:47:07.586Z,10.70
2023-02-13T16:50:18.249Z,11.10
2023-02-13T16:53:24.464Z,11.60
2023-02-13T16:56:37.919Z,12.60
2023-02-13T16:59:54.718Z,12.20
2023-02-13T17:03:00.972Z,12.30
2023-02-13T17:06:08.084Z,12.30
2023-02-13T17:09:14.376Z,11.40
2023-02-13T17:15:27.447Z,11.10
2023-02-13T17:18:33.772Z,10.10
2023-02-13T17:24:44.946Z,9.70
2023-02-13T17:27:52.094Z,9.40
2023-02-13T17:31:00.783Z,9.50
2023-02-13T17:34:07.906Z,10.60
2023-02-13T17:37:19.924Z,10.40
2023-02-13T17:40:29.720Z,9.90
2023-02-13T17:43:36.019Z,9.30
2023-02-13T17:46:42.448Z,10.10
2023-02-13T17:49:49.959Z,10.60
2023-02-13T17:52:56.603Z,12.60
2023-02-13T17:56:02.901Z,11.80
2023-02-13T18:02:16.298Z,12.20
2023-02-13T18:05:23.246Z,13.10
2023-02-13T18:08:29.605Z,14.10
2023-02-13T18:14:40.394Z,13.70
2023-02-13T18:20:58.527Z,15.10
2023-02-13T18:24:05.100Z,15.50
2023-02-13T18:27:12.628Z,13.50
2023-02-13T18:30:21.565Z,11.40
2023-02-13T18:33:27.929Z,12.00
2023-02-13T18:39:39.018Z,9.80
2023-02-13T18:45:49.904Z,10.30
2023-02-13T18:52:01.707Z,8.90
2023-02-13T18:55:09.416Z,8.40
2023-02-13T18:58:15.681Z,8.50
2023-02-13T19:01:23.680Z,9.10
2023-02-13T19:04:30.054Z,8.40
2023-02-13T19:07:36.814Z,9.20
2023-02-13T19:10:43.081Z,9.60
2023-02-13T19:13:49.980Z,9.90
2023-02-13T19:16:56.150Z,9.70
2023-02-13T19:20:02.736Z,11.00
2023-02-13T19:23:08.945Z,10.80
2023-02-13T19:26:17.284Z,11.00
2023-02-13T19:29:23.465Z,23.40
2023-02-13T19:32:29.723Z,35.50
2023-02-13T19:38:41.361Z,13.90
2023-02-13T19:41:47.534Z,13.20
2023-02-13T19:47:58.526Z,15.20
2023-02-13T19:54:14.678Z,19.10
2023-02-13T19:57:21.630Z,19.90
2023-02-13T20:00:27.969Z,17.50
2023-02-13T20:06:40.056Z,27.00
2023-02-13T20:09:46.394Z,17.20
2023-02-13T20:16:00.189Z,15.80
2023-02-13T20:22:16.995Z,14.40
2023-02-13T20:25:23.401Z,14.60
2023-02-13T20:31:36.777Z,16.50
2023-02-13T20:34:58.729Z,21.80
2023-02-13T20:38:06.366Z,15.60
2023-02-13T20:41:14.077Z,31.00
2023-02-13T20:44:22.523Z,32.50
2023-02-13T20:47:28.817Z,20.60
2023-02-13T20:53:40.124Z,17.10
2023-02-13T20:56:47.632Z,21.20
2023-02-13T20:59:53.800Z,19.50
2023-02-13T21:03:34.615Z,21.40
2023-02-13T21:06:42.385Z,16.30
2023-02-13T21:09:48.544Z,13.30
2023-02-13T21:12:54.828Z,20.30
2023-02-13T21:19:17.242Z,27.90
2023-02-13T21:22:23.501Z,15.50
2023-02-13T21:25:29.769Z,17.30
2023-02-13T21:28:36.450Z,29.20
2023-02-13T21:31:47.530Z,18.40
2023-02-13T21:34:55.525Z,17.30
2023-02-13T21:38:01.802Z,19.70
2023-02-13T21:41:09.817Z,21.00
2023-02-13T21:44:16.909Z,20.40
2023-02-13T21:47:23.293Z,25.90
2023-02-13T21:50:29.622Z,23.50
2023-02-13T21:56:42.976Z,48.80
2023-02-13T21:59:49.453Z,37.00
2023-02-13T22:02:55.711Z,23.40
2023-02-13T22:09:08.348Z,17.70
2023-02-13T22:12:14.418Z,18.30
2023-02-13T22:15:21.108Z,18.70
2023-02-13T22:18:27.427Z,18.30
2023-02-13T22:24:38.715Z,20.30
2023-02-13T22:27:49.224Z,16.70
2023-02-13T22:30:55.899Z,17.70
2023-02-13T22:34:04.615Z,18.70
2023-02-13T22:37:12.809Z,17.10
2023-02-13T22:40:19.421Z,20.60
2023-02-13T22:43:25.575Z,18.90
2023-02-13T22:46:33.932Z,18.60
2023-02-13T22:49:40.142Z,19.60
2023-02-13T22:52:46.537Z,20.10
2023-02-13T22:55:52.792Z,18.20
2023-02-13T22:58:59.347Z,25.10
2023-02-13T23:02:06.054Z,21.80
2023-02-13T23:05:12.553Z,19.90
2023-02-13T23:08:18.777Z,19.60
2023-02-13T23:11:44.889Z,25.80
2023-02-13T23:14:51.148Z,21.60
2023-02-13T23:18:18.028Z,18.20
2023-02-13T23:21:25.013Z,19.70
2023-02-13T23:24:32.385Z,19.20
2023-02-13T23:27:39.248Z,21.10
2023-02-13T23:30:45.537Z,18.50
2023-02-13T23:36:56.323Z,18.70
2023-02-13T23:43:07.130Z,17.00
2023-02-13T23:49:18.106Z,17.40
2023-02-13T23:55:28.978Z,16.40
